sensor_id;sensor_type;location;lat;lon;timestamp;P1;durP1;ratioP1;P2;durP2;ratioP2
22468;SDS011;11401;50.792;4.352;2023-07-31T00:02:02;10.75;;;4.47;;
22468;SDS011;11401;50.792;4.352;2023-07-31T00:04:29;12.25;;;5.07;;
22468;SDS011;11401;50.792;4.352;2023-07-31T00:06:56;10.50;;;4.32;;
22468;SDS011;11401;50.792;4.352;2023-07-31T00:09:23;10.95;;;4.85;;
22468;SDS011;11401;50.792;4.352;2023-07-31T00:11:50;8.95;;;4.18;;
22468;SDS011;11401;50.792;4.352;2023-07-31T00:14:17;11.57;;;4.43;;
22468;SDS011;11401;50.792;4.352;2023-07-31T00:16:44;11.32;;;5.50;;
22468;SDS011;11401;50.792;4.352;2023-07-31T00:19:11;8.10;;;3.65;;
22468;SDS011;11401;50.792;4.352;2023-07-31T00:21:38;10.32;;;4.95;;
22468;SDS011;11401;50.792;4.352;2023-07-31T00:24:05;11.65;;;4.80;;
22468;SDS011;11401;50.792;4.352;2023-07-31T00:26:32;14.20;;;5.50;;
22468;SDS011;11401;50.792;4.352;2023-07-31T00:28:59;8.77;;;4.00;;
22468;SDS011;11401;50.792;4.352;2023-07-31T00:31:26;10.35;;;4.68;;
22468;SDS011;11401;50.792;4.352;2023-07-31T00:33:54;6.68;;;4.18;;
22468;SDS011;11401;50.792;4.352;2023-07-31T00:36:21;14.68;;;4.75;;
22468;SDS011;11401;50.792;4.352;2023-07-31T00:38:48;10.13;;;4.95;;
22468;SDS011;11401;50.792;4.352;2023-07-31T00:41:15;6.55;;;3.70;;
22468;SDS011;11401;50.792;4.352;2023-07-31T00:43:42;13.57;;;4.38;;
22468;SDS011;11401;50.792;4.352;2023-07-31T00:46:09;8.32;;;4.43;;
22468;SDS011;11401;50.792;4.352;2023-07-31T00:48:37;11.30;;;4.90;;
22468;SDS011;11401;50.792;4.352;2023-07-31T00:51:05;12.40;;;4.65;;
22468;SDS011;11401;50.792;4.352;2023-07-31T00:53:33;10.10;;;4.35;;
22468;SDS011;11401;50.792;4.352;2023-07-31T00:56:01;9.90;;;4.50;;
22468;SDS011;11401;50.792;4.352;2023-07-31T00:58:28;13.02;;;4.93;;
22468;SDS011;11401;50.792;4.352;2023-07-31T01:00:56;11.57;;;4.15;;
22468;SDS011;11401;50.792;4.352;2023-07-31T01:03:23;9.52;;;4.28;;
22468;SDS011;11401;50.792;4.352;2023-07-31T01:08:37;9.68;;;4.13;;
22468;SDS011;11401;50.792;4.352;2023-07-31T01:11:14;10.35;;;3.83;;
22468;SDS011;11401;50.792;4.352;2023-07-31T01:13:45;9.88;;;5.25;;
22468;SDS011;11401;50.792;4.352;2023-07-31T01:16:13;10.85;;;4.38;;
22468;SDS011;11401;50.792;4.352;2023-07-31T01:18:40;6.25;;;3.78;;
22468;SDS011;11401;50.792;4.352;2023-07-31T01:21:16;12.50;;;4.80;;
22468;SDS011;11401;50.792;4.352;2023-07-31T01:26:27;11.25;;;4.75;;
22468;SDS011;11401;50.792;4.352;2023-07-31T01:31:48;10.43;;;4.68;;
22468;SDS011;11401;50.792;4.352;2023-07-31T01:34:16;10.48;;;4.90;;
22468;SDS011;11401;50.792;4.352;2023-07-31T01:36:45;13.13;;;5.25;;
22468;SDS011;11401;50.792;4.352;2023-07-31T01:39:12;9.57;;;4.22;;
22468;SDS011;11401;50.792;4.352;2023-07-31T01:41:39;10.02;;;4.63;;
22468;SDS011;11401;50.792;4.352;2023-07-31T01:44:06;11.73;;;4.75;;
22468;SDS011;11401;50.792;4.352;2023-07-31T01:46:33;9.30;;;4.40;;
22468;SDS011;11401;50.792;4.352;2023-07-31T01:49:01;11.13;;;4.82;;
22468;SDS011;11401;50.792;4.352;2023-07-31T01:51:28;11.55;;;5.25;;
22468;SDS011;11401;50.792;4.352;2023-07-31T01:53:55;8.93;;;4.80;;
22468;SDS011;11401;50.792;4.352;2023-07-31T01:56:22;10.45;;;5.00;;
22468;SDS011;11401;50.792;4.352;2023-07-31T01:58:49;8.35;;;4.30;;
22468;SDS011;11401;50.792;4.352;2023-07-31T02:01:16;6.78;;;4.45;;
22468;SDS011;11401;50.792;4.352;2023-07-31T02:03:44;8.57;;;4.78;;
22468;SDS011;11401;50.792;4.352;2023-07-31T02:06:11;10.00;;;4.50;;
22468;SDS011;11401;50.792;4.352;2023-07-31T02:08:38;9.25;;;4.30;;
22468;SDS011;11401;50.792;4.352;2023-07-31T02:11:05;10.85;;;4.85;;
22468;SDS011;11401;50.792;4.352;2023-07-31T02:13:33;12.73;;;4.15;;
22468;SDS011;11401;50.792;4.352;2023-07-31T02:16:00;7.97;;;4.53;;
22468;SDS011;11401;50.792;4.352;2023-07-31T02:18:27;9.25;;;4.35;;
22468;SDS011;11401;50.792;4.352;2023-07-31T02:20:54;5.88;;;4.30;;
22468;SDS011;11401;50.792;4.352;2023-07-31T02:23:22;10.73;;;4.50;;
22468;SDS011;11401;50.792;4.352;2023-07-31T02:25:49;9.38;;;4.47;;
22468;SDS011;11401;50.792;4.352;2023-07-31T02:28:16;8.32;;;4.82;;
22468;SDS011;11401;50.792;4.352;2023-07-31T02:30:44;5.05;;;4.00;;
22468;SDS011;11401;50.792;4.352;2023-07-31T02:33:12;5.35;;;3.70;;
22468;SDS011;11401;50.792;4.352;2023-07-31T02:35:40;8.60;;;3.92;;
22468;SDS011;11401;50.792;4.352;2023-07-31T02:38:07;7.75;;;3.80;;
22468;SDS011;11401;50.792;4.352;2023-07-31T02:40:34;7.95;;;3.90;;
22468;SDS011;11401;50.792;4.352;2023-07-31T02:43:01;8.35;;;4.03;;
22468;SDS011;11401;50.792;4.352;2023-07-31T02:45:28;8.35;;;3.88;;
22468;SDS011;11401;50.792;4.352;2023-07-31T02:47:55;9.43;;;4.43;;
22468;SDS011;11401;50.792;4.352;2023-07-31T02:50:22;7.85;;;3.67;;
22468;SDS011;11401;50.792;4.352;2023-07-31T02:52:49;5.55;;;3.50;;
22468;SDS011;11401;50.792;4.352;2023-07-31T02:55:16;5.95;;;3.67;;
22468;SDS011;11401;50.792;4.352;2023-07-31T02:57:43;9.05;;;3.50;;
22468;SDS011;11401;50.792;4.352;2023-07-31T03:00:10;4.82;;;3.72;;
22468;SDS011;11401;50.792;4.352;2023-07-31T03:02:37;8.48;;;3.58;;
22468;SDS011;11401;50.792;4.352;2023-07-31T03:05:05;6.75;;;3.88;;
22468;SDS011;11401;50.792;4.352;2023-07-31T03:07:32;5.50;;;3.65;;
22468;SDS011;11401;50.792;4.352;2023-07-31T03:09:59;6.30;;;3.97;;
22468;SDS011;11401;50.792;4.352;2023-07-31T03:12:26;6.57;;;3.70;;
22468;SDS011;11401;50.792;4.352;2023-07-31T03:14:53;5.65;;;3.50;;
22468;SDS011;11401;50.792;4.352;2023-07-31T03:17:20;8.23;;;3.60;;
22468;SDS011;11401;50.792;4.352;2023-07-31T03:19:47;6.72;;;3.42;;
22468;SDS011;11401;50.792;4.352;2023-07-31T03:22:14;4.78;;;3.83;;
22468;SDS011;11401;50.792;4.352;2023-07-31T03:24:41;4.70;;;3.58;;
22468;SDS011;11401;50.792;4.352;2023-07-31T03:27:08;6.05;;;3.60;;
22468;SDS011;11401;50.792;4.352;2023-07-31T03:29:35;5.43;;;3.58;;
22468;SDS011;11401;50.792;4.352;2023-07-31T03:32:02;7.15;;;3.55;;
22468;SDS011;11401;50.792;4.352;2023-07-31T03:34:29;6.28;;;3.25;;
22468;SDS011;11401;50.792;4.352;2023-07-31T03:36:58;5.18;;;3.55;;
22468;SDS011;11401;50.792;4.352;2023-07-31T03:39:25;7.03;;;4.43;;
22468;SDS011;11401;50.792;4.352;2023-07-31T03:41:53;5.90;;;3.20;;
22468;SDS011;11401;50.792;4.352;2023-07-31T03:44:20;6.30;;;3.38;;
22468;SDS011;11401;50.792;4.352;2023-07-31T03:46:47;5.82;;;3.42;;
22468;SDS011;11401;50.792;4.352;2023-07-31T03:49:14;8.68;;;3.75;;
22468;SDS011;11401;50.792;4.352;2023-07-31T03:51:41;5.90;;;3.50;;
22468;SDS011;11401;50.792;4.352;2023-07-31T03:54:08;4.50;;;3.42;;
22468;SDS011;11401;50.792;4.352;2023-07-31T03:56:35;9.43;;;4.22;;
22468;SDS011;11401;50.792;4.352;2023-07-31T03:59:05;6.30;;;3.47;;
22468;SDS011;11401;50.792;4.352;2023-07-31T04:01:32;5.72;;;4.03;;
22468;SDS011;11401;50.792;4.352;2023-07-31T04:03:59;4.95;;;3.33;;
22468;SDS011;11401;50.792;4.352;2023-07-31T04:06:26;8.30;;;3.80;;
22468;SDS011;11401;50.792;4.352;2023-07-31T04:08:53;8.82;;;3.35;;
22468;SDS011;11401;50.792;4.352;2023-07-31T04:11:20;5.70;;;3.42;;
22468;SDS011;11401;50.792;4.352;2023-07-31T04:13:47;5.57;;;3.08;;
22468;SDS011;11401;50.792;4.352;2023-07-31T04:16:14;7.22;;;3.42;;
22468;SDS011;11401;50.792;4.352;2023-07-31T04:18:41;6.90;;;3.78;;
22468;SDS011;11401;50.792;4.352;2023-07-31T04:21:08;5.80;;;3.60;;
22468;SDS011;11401;50.792;4.352;2023-07-31T04:23:36;6.55;;;3.45;;
22468;SDS011;11401;50.792;4.352;2023-07-31T04:26:03;7.40;;;3.78;;
22468;SDS011;11401;50.792;4.352;2023-07-31T04:28:30;5.85;;;3.20;;
22468;SDS011;11401;50.792;4.352;2023-07-31T04:30:58;6.13;;;3.47;;
22468;SDS011;11401;50.792;4.352;2023-07-31T04:33:25;5.82;;;3.22;;
22468;SDS011;11401;50.792;4.352;2023-07-31T04:35:52;6.32;;;3.05;;
22468;SDS011;11401;50.792;4.352;2023-07-31T04:38:20;7.07;;;3.67;;
22468;SDS011;11401;50.792;4.352;2023-07-31T04:40:48;6.93;;;3.47;;
22468;SDS011;11401;50.792;4.352;2023-07-31T04:43:15;12.15;;;3.70;;
22468;SDS011;11401;50.792;4.352;2023-07-31T04:45:44;6.05;;;3.50;;
22468;SDS011;11401;50.792;4.352;2023-07-31T04:48:13;4.05;;;3.35;;
22468;SDS011;11401;50.792;4.352;2023-07-31T04:50:40;6.00;;;3.17;;
22468;SDS011;11401;50.792;4.352;2023-07-31T04:53:08;5.43;;;3.30;;
22468;SDS011;11401;50.792;4.352;2023-07-31T04:55:35;7.10;;;3.17;;
22468;SDS011;11401;50.792;4.352;2023-07-31T04:58:02;6.88;;;3.10;;
22468;SDS011;11401;50.792;4.352;2023-07-31T05:00:29;7.10;;;3.72;;
22468;SDS011;11401;50.792;4.352;2023-07-31T05:02:56;4.57;;;3.00;;
22468;SDS011;11401;50.792;4.352;2023-07-31T05:05:23;5.25;;;3.47;;
22468;SDS011;11401;50.792;4.352;2023-07-31T05:07:50;4.25;;;3.20;;
22468;SDS011;11401;50.792;4.352;2023-07-31T05:10:17;4.10;;;3.30;;
22468;SDS011;11401;50.792;4.352;2023-07-31T05:12:44;4.65;;;3.05;;
22468;SDS011;11401;50.792;4.352;2023-07-31T05:15:11;5.28;;;3.65;;
22468;SDS011;11401;50.792;4.352;2023-07-31T05:17:38;6.32;;;3.88;;
22468;SDS011;11401;50.792;4.352;2023-07-31T05:20:06;4.80;;;3.33;;
22468;SDS011;11401;50.792;4.352;2023-07-31T05:22:33;7.40;;;3.47;;
22468;SDS011;11401;50.792;4.352;2023-07-31T05:25:00;5.30;;;3.10;;
22468;SDS011;11401;50.792;4.352;2023-07-31T05:27:27;8.10;;;3.10;;
22468;SDS011;11401;50.792;4.352;2023-07-31T05:29:54;5.75;;;3.13;;
22468;SDS011;11401;50.792;4.352;2023-07-31T05:32:21;6.85;;;3.10;;
22468;SDS011;11401;50.792;4.352;2023-07-31T05:34:50;3.22;;;2.90;;
22468;SDS011;11401;50.792;4.352;2023-07-31T05:37:19;4.57;;;2.60;;
22468;SDS011;11401;50.792;4.352;2023-07-31T05:39:46;4.25;;;2.90;;
22468;SDS011;11401;50.792;4.352;2023-07-31T05:42:13;6.38;;;3.05;;
22468;SDS011;11401;50.792;4.352;2023-07-31T05:44:40;7.97;;;2.88;;
22468;SDS011;11401;50.792;4.352;2023-07-31T05:47:07;4.80;;;3.50;;
22468;SDS011;11401;50.792;4.352;2023-07-31T05:49:34;4.75;;;3.50;;
22468;SDS011;11401;50.792;4.352;2023-07-31T05:52:01;8.82;;;2.97;;
22468;SDS011;11401;50.792;4.352;2023-07-31T05:54:29;9.25;;;3.05;;
22468;SDS011;11401;50.792;4.352;2023-07-31T05:56:56;5.10;;;3.20;;
22468;SDS011;11401;50.792;4.352;2023-07-31T05:59:23;3.97;;;3.10;;
22468;SDS011;11401;50.792;4.352;2023-07-31T06:01:50;5.55;;;3.10;;
22468;SDS011;11401;50.792;4.352;2023-07-31T06:04:18;8.18;;;4.07;;
22468;SDS011;11401;50.792;4.352;2023-07-31T06:06:48;6.65;;;3.20;;
22468;SDS011;11401;50.792;4.352;2023-07-31T06:09:15;6.70;;;3.58;;
22468;SDS011;11401;50.792;4.352;2023-07-31T06:11:42;5.88;;;3.17;;
22468;SDS011;11401;50.792;4.352;2023-07-31T06:14:09;5.68;;;2.90;;
22468;SDS011;11401;50.792;4.352;2023-07-31T06:16:36;5.90;;;3.80;;
22468;SDS011;11401;50.792;4.352;2023-07-31T06:19:04;5.03;;;3.28;;
22468;SDS011;11401;50.792;4.352;2023-07-31T06:21:31;5.85;;;3.25;;
22468;SDS011;11401;50.792;4.352;2023-07-31T06:23:58;4.72;;;2.95;;
22468;SDS011;11401;50.792;4.352;2023-07-31T06:26:26;7.60;;;3.45;;
22468;SDS011;11401;50.792;4.352;2023-07-31T06:28:53;5.97;;;3.05;;
22468;SDS011;11401;50.792;4.352;2023-07-31T19:10:03;1.35;;;1.25;;
22468;SDS011;11401;50.792;4.352;2023-07-31T19:12:42;1.00;;;0.98;;
22468;SDS011;11401;50.792;4.352;2023-07-31T19:15:09;2.30;;;1.40;;
22468;SDS011;11401;50.792;4.352;2023-07-31T19:17:37;2.55;;;1.60;;
22468;SDS011;11401;50.792;4.352;2023-07-31T19:20:05;1.38;;;1.27;;
22468;SDS011;11401;50.792;4.352;2023-07-31T19:22:33;1.30;;;1.20;;
22468;SDS011;11401;50.792;4.352;2023-07-31T19:25:00;1.38;;;1.27;;
22468;SDS011;11401;50.792;4.352;2023-07-31T19:27:27;2.63;;;1.33;;
22468;SDS011;11401;50.792;4.352;2023-07-31T19:29:54;1.65;;;1.50;;
22468;SDS011;11401;50.792;4.352;2023-07-31T19:32:21;1.92;;;1.60;;
22468;SDS011;11401;50.792;4.352;2023-07-31T19:34:48;1.80;;;1.65;;
22468;SDS011;11401;50.792;4.352;2023-07-31T19:37:15;1.80;;;1.70;;
22468;SDS011;11401;50.792;4.352;2023-07-31T19:39:42;3.15;;;1.63;;
22468;SDS011;11401;50.792;4.352;2023-07-31T19:42:09;1.77;;;1.40;;
22468;SDS011;11401;50.792;4.352;2023-07-31T19:44:37;2.25;;;1.35;;
22468;SDS011;11401;50.792;4.352;2023-07-31T19:47:04;6.22;;;2.20;;
22468;SDS011;11401;50.792;4.352;2023-07-31T19:49:31;1.75;;;1.65;;
22468;SDS011;11401;50.792;4.352;2023-07-31T19:51:58;2.22;;;1.40;;
22468;SDS011;11401;50.792;4.352;2023-07-31T19:54:25;1.90;;;1.67;;
22468;SDS011;11401;50.792;4.352;2023-07-31T19:56:55;7.85;;;1.70;;
22468;SDS011;11401;50.792;4.352;2023-07-31T19:59:23;1.77;;;1.20;;
22468;SDS011;11401;50.792;4.352;2023-07-31T20:01:53;1.63;;;1.40;;
22468;SDS011;11401;50.792;4.352;2023-07-31T20:04:20;1.73;;;1.42;;
22468;SDS011;11401;50.792;4.352;2023-07-31T20:06:47;2.67;;;1.85;;
22468;SDS011;11401;50.792;4.352;2023-07-31T20:09:14;1.95;;;1.45;;
22468;SDS011;11401;50.792;4.352;2023-07-31T20:11:41;2.85;;;1.48;;
22468;SDS011;11401;50.792;4.352;2023-07-31T20:14:09;3.15;;;1.70;;
22468;SDS011;11401;50.792;4.352;2023-07-31T20:16:36;3.85;;;1.63;;
22468;SDS011;11401;50.792;4.352;2023-07-31T20:19:07;2.78;;;1.73;;
22468;SDS011;11401;50.792;4.352;2023-07-31T20:21:35;4.57;;;1.80;;
22468;SDS011;11401;50.792;4.352;2023-07-31T20:24:05;4.30;;;2.05;;
22468;SDS011;11401;50.792;4.352;2023-07-31T20:26:34;6.30;;;1.40;;
22468;SDS011;11401;50.792;4.352;2023-07-31T20:29:02;3.70;;;1.40;;
22468;SDS011;11401;50.792;4.352;2023-07-31T20:31:29;4.70;;;1.95;;
22468;SDS011;11401;50.792;4.352;2023-07-31T20:33:56;5.10;;;2.33;;
22468;SDS011;11401;50.792;4.352;2023-07-31T20:36:23;7.40;;;2.03;;
22468;SDS011;11401;50.792;4.352;2023-07-31T20:38:50;2.83;;;1.77;;
22468;SDS011;11401;50.792;4.352;2023-07-31T20:41:17;1.67;;;1.58;;
22468;SDS011;11401;50.792;4.352;2023-07-31T20:43:44;4.70;;;2.50;;
22468;SDS011;11401;50.792;4.352;2023-07-31T20:46:11;2.60;;;2.10;;
22468;SDS011;11401;50.792;4.352;2023-07-31T20:48:38;2.45;;;2.00;;
22468;SDS011;11401;50.792;4.352;2023-07-31T20:51:05;3.40;;;2.05;;
22468;SDS011;11401;50.792;4.352;2023-07-31T20:53:32;3.88;;;1.90;;
22468;SDS011;11401;50.792;4.352;2023-07-31T20:55:59;2.38;;;1.70;;
22468;SDS011;11401;50.792;4.352;2023-07-31T20:58:26;2.47;;;1.67;;
22468;SDS011;11401;50.792;4.352;2023-07-31T21:00:53;4.28;;;1.77;;
22468;SDS011;11401;50.792;4.352;2023-07-31T21:03:20;3.55;;;2.05;;
22468;SDS011;11401;50.792;4.352;2023-07-31T21:05:48;2.20;;;1.73;;
22468;SDS011;11401;50.792;4.352;2023-07-31T21:08:16;2.10;;;1.80;;
22468;SDS011;11401;50.792;4.352;2023-07-31T21:10:44;2.80;;;1.52;;
22468;SDS011;11401;50.792;4.352;2023-07-31T21:13:11;1.60;;;1.10;;
22468;SDS011;11401;50.792;4.352;2023-07-31T21:15:39;2.50;;;1.65;;
22468;SDS011;11401;50.792;4.352;2023-07-31T21:18:07;2.17;;;1.48;;
22468;SDS011;11401;50.792;4.352;2023-07-31T21:20:36;1.70;;;1.50;;
22468;SDS011;11401;50.792;4.352;2023-07-31T21:23:03;2.17;;;1.30;;
22468;SDS011;11401;50.792;4.352;2023-07-31T21:25:33;4.65;;;1.77;;
22468;SDS011;11401;50.792;4.352;2023-07-31T21:28:04;5.25;;;1.40;;
22468;SDS011;11401;50.792;4.352;2023-07-31T21:30:31;1.38;;;1.20;;
22468;SDS011;11401;50.792;4.352;2023-07-31T21:32:59;2.78;;;1.42;;
22468;SDS011;11401;50.792;4.352;2023-07-31T21:35:26;3.47;;;1.42;;
22468;SDS011;11401;50.792;4.352;2023-07-31T21:37:54;2.65;;;1.65;;
22468;SDS011;11401;50.792;4.352;2023-07-31T21:40:22;1.77;;;1.10;;
22468;SDS011;11401;50.792;4.352;2023-07-31T21:42:49;4.13;;;1.38;;
22468;SDS011;11401;50.792;4.352;2023-07-31T21:45:16;1.70;;;1.10;;
22468;SDS011;11401;50.792;4.352;2023-07-31T21:47:44;3.63;;;1.50;;
22468;SDS011;11401;50.792;4.352;2023-07-31T21:50:11;4.07;;;1.65;;
22468;SDS011;11401;50.792;4.352;2023-07-31T21:52:38;2.63;;;1.33;;
22468;SDS011;11401;50.792;4.352;2023-07-31T21:55:06;4.82;;;1.10;;
22468;SDS011;11401;50.792;4.352;2023-07-31T21:57:33;1.90;;;1.23;;
22468;SDS011;11401;50.792;4.352;2023-07-31T22:00:05;3.38;;;1.50;;
22468;SDS011;11401;50.792;4.352;2023-07-31T22:02:32;2.63;;;1.60;;
22468;SDS011;11401;50.792;4.352;2023-07-31T22:05:00;2.75;;;1.33;;
22468;SDS011;11401;50.792;4.352;2023-07-31T22:07:27;3.13;;;1.55;;
22468;SDS011;11401;50.792;4.352;2023-07-31T22:09:54;2.13;;;1.33;;
22468;SDS011;11401;50.792;4.352;2023-07-31T22:12:21;3.92;;;1.30;;
22468;SDS011;11401;50.792;4.352;2023-07-31T22:14:48;3.17;;;1.40;;
22468;SDS011;11401;50.792;4.352;2023-07-31T22:17:15;4.18;;;1.40;;
22468;SDS011;11401;50.792;4.352;2023-07-31T22:19:43;1.33;;;1.20;;
22468;SDS011;11401;50.792;4.352;2023-07-31T22:22:10;5.55;;;1.83;;
22468;SDS011;11401;50.792;4.352;2023-07-31T22:24:37;2.80;;;1.23;;
22468;SDS011;11401;50.792;4.352;2023-07-31T22:27:04;3.67;;;1.50;;
22468;SDS011;11401;50.792;4.352;2023-07-31T22:29:32;2.05;;;1.60;;
22468;SDS011;11401;50.792;4.352;2023-07-31T22:31:59;3.78;;;1.58;;
22468;SDS011;11401;50.792;4.352;2023-07-31T22:34:26;2.05;;;1.27;;
22468;SDS011;11401;50.792;4.352;2023-07-31T22:36:53;1.65;;;1.20;;
22468;SDS011;11401;50.792;4.352;2023-07-31T22:39:20;1.55;;;1.02;;
22468;SDS011;11401;50.792;4.352;2023-07-31T22:41:47;1.25;;;1.15;;
22468;SDS011;11401;50.792;4.352;2023-07-31T22:44:14;1.70;;;1.60;;
22468;SDS011;11401;50.792;4.352;2023-07-31T22:46:41;3.55;;;1.30;;
22468;SDS011;11401;50.792;4.352;2023-07-31T22:49:09;2.03;;;1.30;;
22468;SDS011;11401;50.792;4.352;2023-07-31T22:51:36;2.20;;;1.20;;
22468;SDS011;11401;50.792;4.352;2023-07-31T22:54:03;4.38;;;1.25;;
22468;SDS011;11401;50.792;4.352;2023-07-31T22:56:30;2.05;;;1.20;;
22468;SDS011;11401;50.792;4.352;2023-07-31T22:58:57;1.48;;;1.20;;
22468;SDS011;11401;50.792;4.352;2023-07-31T23:01:24;3.08;;;1.60;;
22468;SDS011;11401;50.792;4.352;2023-07-31T23:03:53;1.50;;;1.30;;
22468;SDS011;11401;50.792;4.352;2023-07-31T23:06:21;3.33;;;1.33;;
22468;SDS011;11401;50.792;4.352;2023-07-31T23:08:48;2.88;;;1.55;;
22468;SDS011;11401;50.792;4.352;2023-07-31T23:11:15;1.80;;;1.52;;
22468;SDS011;11401;50.792;4.352;2023-07-31T23:13:42;2.22;;;1.45;;
22468;SDS011;11401;50.792;4.352;2023-07-31T23:16:09;1.73;;;1.48;;
22468;SDS011;11401;50.792;4.352;2023-07-31T23:18:36;1.52;;;1.10;;
22468;SDS011;11401;50.792;4.352;2023-07-31T23:21:03;5.03;;;1.55;;
22468;SDS011;11401;50.792;4.352;2023-07-31T23:23:30;4.10;;;1.40;;
22468;SDS011;11401;50.792;4.352;2023-07-31T23:25:57;1.83;;;1.20;;
22468;SDS011;11401;50.792;4.352;2023-07-31T23:28:24;1.42;;;1.33;;
22468;SDS011;11401;50.792;4.352;2023-07-31T23:30:51;1.83;;;1.27;;
22468;SDS011;11401;50.792;4.352;2023-07-31T23:33:18;2.15;;;1.40;;
22468;SDS011;11401;50.792;4.352;2023-07-31T23:35:45;2.83;;;1.48;;
22468;SDS011;11401;50.792;4.352;2023-07-31T23:38:12;3.47;;;1.25;;
22468;SDS011;11401;50.792;4.352;2023-07-31T23:40:39;1.23;;;1.10;;
22468;SDS011;11401;50.792;4.352;2023-07-31T23:43:06;2.33;;;1.20;;
22468;SDS011;11401;50.792;4.352;2023-07-31T23:45:33;3.13;;;1.73;;
22468;SDS011;11401;50.792;4.352;2023-07-31T23:48:00;1.42;;;1.00;;
22468;SDS011;11401;50.792;4.352;2023-07-31T23:50:28;4.68;;;1.73;;
22468;SDS011;11401;50.792;4.352;2023-07-31T23:52:55;4.20;;;1.85;;
22468;SDS011;11401;50.792;4.352;2023-07-31T23:55:22;2.28;;;1.75;;
22468;SDS011;11401;50.792;4.352;2023-07-31T23:57:50;2.83;;;1.67;;
